Latest Weather Observations for Willis Island

IDQ60801

Issued at 3:32 pm EST Friday 29 July 2016 (issued every 30 minutes, with the page automatically refreshed every 10 minutes)

About weather observations | Map of weather stations | Latest weather observations for QLD | Other Formats
Station Details ID: 200283 Name: WILLIS ISLAND Lat: -16.29 Lon: 149.97 Height: 9.29 m
Data from the previous 72 hours. | See also: Recent months at Willis Island
Date/Time
EST
Temp
°C
App
Temp
°C
Dew
Point
°C
Rel
Hum
%
Delta-T
°C
Wind Press
QNH
hPa
Press
MSL
hPa
Rain since
9am
mm
Dir  Spd
km/h
Gust
km/h
Spd
kts
Gust
kts
29/03:30pm 25.5 23.6 22.7 84 1.9 SE 37 43 20 23 1012.8 1012.7 0.2
29/03:00pm 25.6 24.2 22.2 81 2.3 SE 33 39 18 21 1012.9 1012.8 0.2
29/02:30pm 26.1 24.5 21.9 77 2.8 SE 33 41 18 22 1012.9 1012.8 0.2
29/02:00pm 26.3 24.8 22.0 77 2.9 SE 33 39 18 21 1013.2 1013.1 0.2
29/01:30pm 26.7 25.7 22.7 79 2.7 SE 32 35 17 19 1013.4 1013.3 0.2
29/01:00pm 24.7 22.6 20.9 79 2.5 SE 33 43 18 23 1013.9 1013.8 0.2
29/12:30pm 25.9 23.7 22.2 80 2.5 SE 37 41 20 22 1014.3 1014.2 0.0
29/12:00pm 24.8 22.8 21.9 84 1.9 SE 35 41 19 22 1014.7 1014.6 0.0
29/11:30am 26.3 25.5 22.3 78 2.7 SE 30 35 16 19 1015.1 1015.0 0.0
29/11:00am 26.0 24.7 22.4 80 2.4 SE 33 39 18 21 1015.4 1015.3 0.0
29/10:30am 26.5 23.7 21.0 72 3.6 SE 37 46 20 25 1015.7 1015.6 0.0
29/10:00am 26.8 24.9 22.0 75 3.2 SE 35 41 19 22 1015.8 1015.7 0.0
29/09:30am 26.4 24.4 21.9 76 3.0 SE 35 41 19 22 1015.7 1015.6 0.0
29/09:00am 26.2 24.0 21.5 75 3.1 SE 35 44 19 24 1015.8 1015.7 0.2
29/08:30am 25.8 24.9 22.2 80 2.4 SE 30 41 16 22 1015.8 1015.7 0.0
29/08:00am 25.2 23.5 21.7 81 2.3 SE 33 39 18 21 1015.5 1015.4 0.0
29/07:30am 24.8 22.4 21.9 84 1.9 SE 37 43 20 23 1015.3 1015.2 0.0
29/07:00am 24.5 22.1 21.8 85 1.8 SE 37 44 20 24 1015.1 1015.0 0.0
29/06:30am 24.4 22.3 21.7 85 1.8 SE 35 44 19 24 1014.8 1014.7 0.0
29/06:00am 24.6 21.6 21.4 82 2.1 SE 39 44 21 24 1014.5 1014.4 0.0
29/05:30am 24.5 21.9 21.5 83 2.0 SE 37 44 20 24 1014.3 1014.2 0.0
29/05:00am 24.8 21.9 21.6 82 2.1 SE 39 44 21 24 1014.1 1014.0 0.0
29/04:30am 24.9 21.7 21.1 79 2.5 SE 39 46 21 25 1013.9 1013.8 0.0
29/04:00am 24.7 21.7 21.4 82 2.2 SE 39 48 21 26 1014.1 1014.0 0.0
29/03:30am 24.7 21.9 21.7 83 2.0 SE 39 44 21 24 1014.0 1013.9 0.0
29/03:00am 24.6 21.8 21.7 84 1.9 SE 39 44 21 24 1014.1 1014.0 0.0
29/02:30am 24.7 21.3 21.4 82 2.2 SE 41 46 22 25 1014.3 1014.2 0.0
29/02:00am 24.4 21.8 21.5 84 1.9 SE 37 44 20 24 1014.5 1014.4 0.0
29/01:30am 24.5 21.1 21.3 82 2.1 SE 41 48 22 26 1014.8 1014.7 0.0
29/01:00am 24.5 20.7 21.3 82 2.1 SE 43 50 23 27 1015.2 1015.1 0.0
29/12:30am 24.6 21.2 21.3 82 2.2 SE 41 46 22 25 1015.6 1015.5 0.0
29/12:00am 24.5 20.7 21.3 82 2.1 SE 43 50 23 27 1015.6 1015.5 0.0
 
Date/Time
EST
Temp
°C
App
Temp
°C
Dew
Point
°C
Rel
Hum
%
Delta-T
°C
Wind Press
QNH
hPa
Press
MSL
hPa
Rain since
9am
mm
Dir  Spd
km/h
Gust
km/h
Spd
kts
Gust
kts
28/11:30pm 24.7 20.8 21.2 81 2.3 SE 43 50 23 27 1015.7 1015.6 0.0
28/11:00pm 24.6 20.5 20.8 79 2.5 SE 43 50 23 27 1016.0 1015.9 0.0
28/10:30pm 24.7 20.8 21.2 81 2.3 SE 43 50 23 27 1016.1 1016.0 0.0
28/10:00pm 24.5 20.5 21.0 81 2.3 SE 43 50 23 27 1016.4 1016.3 0.0
28/09:30pm 23.9 20.0 21.5 86 1.6 SE 44 50 24 27 1016.6 1016.5 0.0
28/09:00pm 24.5 20.7 21.3 82 2.1 SE 43 50 23 27 1016.6 1016.5 0.0
28/08:30pm 24.3 20.0 21.4 84 1.9 SE 46 54 25 29 1016.8 1016.7 0.0
28/08:00pm 24.5 20.7 21.3 82 2.1 SE 43 50 23 27 1016.7 1016.6 0.0
28/07:30pm 24.5 20.5 21.2 82 2.2 SSE 44 52 24 28 1016.4 1016.3 0.0
28/07:00pm 24.5 20.7 21.3 82 2.1 SE 43 50 23 27 1016.2 1016.1 0.0
28/06:30pm 24.3 20.1 20.9 81 2.2 SE 44 54 24 29 1015.8 1015.7 0.0
28/06:00pm 24.8 19.9 21.0 79 2.5 SE 48 57 26 31 1015.6 1015.5 0.0
28/05:30pm 24.7 20.1 20.9 79 2.5 SE 46 54 25 29 1015.2 1015.1 0.0
28/05:00pm 24.8 20.0 20.5 77 2.8 SE 46 54 25 29 1014.9 1014.8 0.0
28/04:30pm 24.8 19.5 20.2 75 3.0 SE 48 56 26 30 1014.5 1014.4 0.0
28/04:00pm 24.8 19.5 20.2 75 3.0 SSE 48 56 26 30 1014.2 1014.1 0.0
28/03:30pm 25.0 20.0 20.1 74 3.2 SSE 46 56 25 30 1013.7 1013.6 0.0
28/03:00pm 25.0 19.7 20.2 74 3.1 SE 48 56 26 30 1013.9 1013.8 0.0
28/02:30pm 24.7 20.3 20.2 76 2.9 SE 43 50 23 27 1014.0 1013.9 0.0
28/02:00pm 24.8 20.5 20.3 76 2.9 SE 43 52 23 28 1014.3 1014.2 0.0
28/01:30pm 25.1 20.9 21.0 78 2.7 SE 44 52 24 28 1014.8 1014.7 0.0
28/01:00pm 25.0 20.8 21.0 78 2.6 SE 44 56 24 30 1015.2 1015.1 0.0
28/12:30pm 25.1 20.6 21.0 78 2.7 SE 46 56 25 30 1015.4 1015.3 0.0
28/12:00pm 24.7 20.3 21.2 81 2.3 SE 46 52 25 28 1015.8 1015.7 0.0
28/11:30am 23.9 19.1 21.3 85 1.7 SE 48 56 26 30 1016.3 1016.2 0.0
28/11:00am 23.7 18.9 21.9 90 1.2 SE 50 59 27 32 1016.6 1016.5 0.0
28/10:30am 24.1 20.7 22.0 88 1.4 SE 43 50 23 27 1016.8 1016.7 0.0
28/10:00am 24.1 21.6 22.3 90 1.2 SSE 39 48 21 26 1017.1 1017.0 0.0
28/09:30am 24.4 21.6 21.8 85 1.7 SE 39 44 21 24 1017.3 1017.2 0.0
28/09:00am 24.1 21.3 21.7 86 1.6 SE 39 44 21 24 1017.3 1017.2 4.8
28/08:30am 23.7 21.1 21.4 87 1.5 SE 37 41 20 22 1017.2 1017.1 4.8
28/08:00am 23.2 20.4 21.1 88 1.4 SE 37 43 20 23 1017.0 1016.9 4.8
28/07:30am 22.9 20.0 20.9 88 1.3 SE 37 44 20 24 1016.9 1016.8 4.2
28/07:00am 23.5 20.7 21.1 86 1.6 SE 37 43 20 23 1016.7 1016.6 3.8
28/06:30am 23.7 21.6 21.6 88 1.4 SE 35 41 19 22 1016.3 1016.2 3.6
28/06:00am 23.8 20.4 20.7 83 2.0 SE 39 43 21 23 1016.1 1016.0 3.6
28/05:30am 24.2 21.9 21.2 83 2.0 SE 35 41 19 22 1015.8 1015.7 3.6
28/05:00am 23.9 20.6 20.0 79 2.5 SE 37 43 20 23 1015.6 1015.5 3.6
28/04:30am 23.5 21.1 21.8 90 1.1 SSE 37 44 20 24 1015.5 1015.4 3.6
28/04:00am 23.6 20.4 21.8 90 1.2 SE 41 46 22 25 1015.6 1015.5 3.6
28/03:30am 23.3 20.9 21.0 87 1.5 SE 35 43 19 23 1015.5 1015.4 3.4
28/03:00am 23.6 21.2 21.8 90 1.2 SE 37 46 20 25 1015.5 1015.4 3.4
28/02:30am 23.7 21.0 21.3 86 1.6 SE 37 43 20 23 1015.5 1015.4 3.2
28/02:00am 23.5 20.1 20.6 84 1.9 ESE 39 43 21 23 1015.6 1015.5 3.2
28/01:30am 23.5 20.3 21.1 86 1.6 ESE 39 43 21 23 1015.7 1015.6 3.2
28/01:00am 23.7 21.6 21.7 88 1.3 ESE 35 39 19 21 1015.7 1015.6 3.2
28/12:30am 23.8 22.5 22.1 90 1.1 ESE 32 35 17 19 1016.2 1016.1 2.6
28/12:00am 23.6 21.2 21.0 85 1.7 ESE 35 41 19 22 1016.1 1016.0 2.4
 
Date/Time
EST
Temp
°C
App
Temp
°C
Dew
Point
°C
Rel
Hum
%
Delta-T
°C
Wind Press
QNH
hPa
Press
MSL
hPa
Rain since
9am
mm
Dir  Spd
km/h
Gust
km/h
Spd
kts
Gust
kts
27/11:30pm 23.8 21.6 21.4 86 1.6 E 35 41 19 22 1016.4 1016.3 2.4
27/11:00pm 24.0 20.7 20.9 83 2.0 E 39 43 21 23 1016.2 1016.1 2.4
27/10:30pm 24.4 21.7 21.2 82 2.1 E 37 41 20 22 1016.5 1016.4 2.4
27/10:00pm 25.0 23.3 21.7 82 2.2 ESE 33 41 18 22 1016.4 1016.3 2.4
27/09:30pm 25.0 23.5 21.8 82 2.1 ESE 32 37 17 20 1016.5 1016.4 2.4
27/09:00pm 24.9 23.0 20.9 78 2.6 ESE 32 35 17 19 1016.5 1016.4 2.4
27/08:30pm 24.7 22.5 20.4 77 2.8 ESE 32 35 17 19 1016.3 1016.2 2.4
27/08:00pm 24.5 22.2 20.5 78 2.6 ESE 33 37 18 20 1015.8 1015.7 2.4
27/07:30pm 24.4 23.9 22.8 91 1.1 ESE 30 35 16 19 1015.6 1015.5 2.2
27/07:00pm 24.7 23.9 22.3 86 1.6 ESE 30 35 16 19 1015.3 1015.2 1.8
27/06:30pm 24.6 25.0 23.1 91 1.0 ESE 26 33 14 18 1015.1 1015.0 1.6
27/06:00pm 24.9 24.4 22.8 88 1.4 SE 30 33 16 18 1014.8 1014.7 0.4
27/05:30pm 25.0 24.8 22.8 87 1.5 ESE 28 32 15 17 1014.5 1014.4 0.2
27/05:00pm 25.2 25.4 22.7 86 1.7 ESE 26 30 14 16 1014.2 1014.1 0.2
27/04:30pm 25.3 25.4 22.5 84 1.9 ESE 26 32 14 17 1013.9 1013.8 0.0
27/04:00pm 25.7 25.4 22.6 83 2.1 SE 28 30 15 16 1013.5 1013.4 0.0
27/03:30pm 25.8 25.8 22.4 81 2.3 ESE 26 30 14 16 1013.5 1013.4 0.0
27/03:00pm 25.7 26.0 23.0 85 1.8 ESE 26 30 14 16 1013.4 1013.3 0.0
27/02:30pm 26.5 26.7 22.7 79 2.6 SE 26 30 14 16 1013.5 1013.4 0.0
27/02:00pm 26.7 26.9 22.7 79 2.7 SE 26 30 14 16 1013.5 1013.4 0.0
27/01:30pm 26.8 26.6 22.8 79 2.7 SE 28 33 15 18 1013.5 1013.4 0.0
27/01:00pm 27.0 26.4 22.7 77 2.9 SE 30 33 16 18 1013.6 1013.5 0.0
27/12:30pm 27.6 26.6 22.7 74 3.3 SE 32 35 17 19 1013.9 1013.8 0.0
27/12:00pm 27.4 26.3 22.4 74 3.4 ESE 32 35 17 19 1014.1 1014.0 0.0
27/11:30am 27.4 26.9 22.8 76 3.1 ESE 30 35 16 19 1014.6 1014.5 0.0
27/11:00am 27.3 26.8 22.9 77 3.0 SE 30 35 16 19 1015.1 1015.0 0.0
27/10:30am 26.7 25.5 22.2 76 3.0 SE 32 35 17 19 1015.4 1015.3 0.0
27/10:00am 26.2 25.0 22.2 78 2.7 ESE 32 35 17 19 1015.3 1015.2 0.0
27/09:30am 26.1 25.2 22.1 78 2.7 ESE 30 33 16 18 1015.5 1015.4 0.0
27/09:00am 26.3 25.1 22.3 78 2.7 ESE 32 35 17 19 1015.5 1015.4 0.2
27/08:30am 26.2 24.8 21.9 77 2.9 ESE 32 35 17 19 1015.4 1015.3 0.2
27/08:00am 25.6 24.2 22.0 80 2.4 ESE 32 37 17 20 1015.1 1015.0 0.2
27/07:30am 25.5 23.9 21.9 80 2.4 ESE 33 37 18 20 1014.8 1014.7 0.2
27/07:00am 25.4 23.6 21.2 77 2.8 ESE 32 37 17 20 1014.6 1014.5 0.2
27/06:30am 25.1 23.5 21.5 80 2.4 ESE 32 37 17 20 1014.1 1014.0 0.2
27/06:00am 25.1 23.5 21.8 82 2.2 ESE 33 37 18 20 1014.1 1014.0 0.2
27/05:30am 25.2 23.9 22.4 84 1.9 ESE 33 39 18 21 1013.8 1013.7 0.2
27/05:00am 25.3 23.9 22.3 83 2.0 ESE 33 39 18 21 1013.6 1013.5 0.2
27/04:30am 25.3 23.8 22.0 82 2.2 SE 33 39 18 21 1013.5 1013.4 0.2
27/04:00am 25.3 23.4 22.0 82 2.2 ESE 35 39 19 21 1013.5 1013.4 0.2
27/03:30am 25.2 23.7 22.1 83 2.1 ESE 33 39 18 21 1013.5 1013.4 0.2
27/03:00am 25.1 23.5 21.6 81 2.3 SE 32 37 17 20 1013.6 1013.5 0.2
27/02:30am 25.2 23.4 21.6 80 2.4 ESE 33 37 18 20 1013.8 1013.7 0.2
27/02:00am 25.3 24.2 22.5 84 1.9 SE 32 37 17 20 1014.1 1014.0 0.2
27/01:30am 25.1 23.7 22.0 83 2.1 SE 32 37 17 20 1014.3 1014.2 0.0
27/01:00am 25.2 23.9 22.1 83 2.1 SE 32 35 17 19 1014.7 1014.6 0.0
27/12:30am 25.2 23.8 21.9 82 2.2 SE 32 37 17 20 1014.8 1014.7 0.0
27/12:00am 25.0 23.5 22.0 83 2.0 SE 33 37 18 20 1014.9 1014.8 0.0
 
Date/Time
EST
Temp
°C
App
Temp
°C
Dew
Point
°C
Rel
Hum
%
Delta-T
°C
Wind Press
QNH
hPa
Press
MSL
hPa
Rain since
9am
mm
Dir  Spd
km/h
Gust
km/h
Spd
kts
Gust
kts
26/11:30pm 25.1 23.7 21.9 82 2.1 ESE 32 35 17 19 1014.9 1014.8 0.0
26/11:00pm 25.0 23.8 22.2 84 1.9 SE 32 35 17 19 1015.1 1015.0 0.0
26/10:30pm 25.3 23.8 21.8 81 2.3 SE 32 35 17 19 1015.1 1015.0 0.0
26/10:00pm 25.1 23.6 21.8 82 2.2 SE 32 35 17 19 1015.1 1015.0 0.0
26/09:30pm 25.2 23.7 21.7 81 2.3 SE 32 35 17 19 1015.1 1015.0 0.0
26/09:00pm 25.2 23.5 21.4 79 2.5 SE 32 35 17 19 1014.9 1014.8 0.0
26/08:30pm 25.1 23.4 21.3 79 2.5 SE 32 35 17 19 1014.6 1014.5 0.0
26/08:00pm 25.3 23.5 21.2 78 2.7 SE 32 35 17 19 1014.5 1014.4 0.0
26/07:30pm 25.2 23.3 20.9 77 2.8 SE 32 35 17 19 1014.3 1014.2 0.0
26/07:00pm 25.1 23.1 20.8 77 2.8 ESE 32 35 17 19 1013.9 1013.8 0.0
26/06:30pm 25.1 23.1 20.8 77 2.8 SE 32 35 17 19 1013.4 1013.3 0.0
26/06:00pm 25.1 23.1 20.7 76 2.9 SE 32 35 17 19 1013.0 1012.9 0.0
26/05:30pm 25.2 23.6 20.8 76 2.9 SE 30 35 16 19 1012.7 1012.6 0.0
26/05:00pm 25.6 24.4 20.9 75 3.1 SE 28 33 15 18 1012.5 1012.4 0.0
26/04:30pm 25.8 24.1 20.5 72 3.5 SE 30 33 16 18 1012.3 1012.2 0.0
26/04:00pm 26.0 24.1 20.2 70 3.8 SE 30 33 16 18 1012.1 1012.0 0.0

Other Formats:

Comma delimited format used in spreadsheet applications
http://www.bom.gov.au/fwo/IDQ60801/IDQ60801.94299.axf

JavaScript Object Notation format (JSON) in row-major order
http://www.bom.gov.au/fwo/IDQ60801/IDQ60801.94299.json